Yemassee, South Carolina
Current Conditions -  °F | °C
As of 4:56 AM on Thursday 23 Oct 2014 (Local Time) from KNBC Reporting Station
Clear Clear  
Wind Chill: 47°   Ceiling: Unl
Heat Index: 47°   Visibility: 10mi
Dew Point: 44°   Wind: 3mph
Humidity: 90%   Direction: 310°NW
Pressure: 30.06"   Gusts: NA
Location:  32.69°N, 80.85°W
Report Text: KNBC 230856Z AUTO 31003KT 10SM CLR 08/07 A3006 RMK AO2 SLP181 T00830067 55002 $
Loading
Personal Weather Stations






























Interactive Weather Map
Tropical Storm Tracking
New forecast layout! Learn more

10-Day Weather Forecast

Advertisements
Track Severe Weather on mobile